Time;durP1;ratioP1;P1;durP2;ratioP2;P2;SDS_P1;SDS_P2;PMS_P1;PMS_P2;Temp;Humidity;BMP_temperature;BMP_pressure;BME280_temperature;BME280_humidity;BME280_pressure;Samples;Min_cycle;Max_cycle;Signal;HPM_P1;HPM_P2
2020/12/30 00:05:17;;;;;;;17.87;15.27;;;2.40;99.90;;;;;;6238523;23;20733;-88
2020/12/30 00:13:59;;;;;;;20.40;18.07;;;2.40;99.90;;;;;;6235696;23;20541;-89
2020/12/30 00:16:43;;;;;;;21.00;18.33;;;2.40;99.90;;;;;;6257141;23;20948;-89
2020/12/30 00:19:49;;;;;;;21.03;16.83;;;2.40;99.90;;;;;;6257810;23;20407;-89
2020/12/30 00:22:59;;;;;;;23.73;16.90;;;2.50;99.90;;;;;;6257777;23;20465;-89
2020/12/30 00:28:31;;;;;;;22.07;19.27;;;2.50;99.90;;;;;;6236601;23;20786;-88
2020/12/30 00:31:41;;;;;;;;;;;;;;;;;;;;;
2020/12/30 00:46:35;;;;;;;;;;;;;;;;;;;;;
2020/12/30 00:49:47;;;;;;;26.53;24.00;;;2.50;99.90;;;;;;6247680;23;20761;-88
2020/12/30 00:52:29;;;;;;;25.90;23.30;;;2.40;99.90;;;;;;6134134;23;20514;-88
2020/12/30 00:55:17;;;;;;;27.30;24.60;;;2.50;99.90;;;;;;6241710;23;20933;-88
2020/12/30 00:57:56;;;;;;;28.83;26.10;;;2.50;99.90;;;;;;6246547;23;20447;-88
2020/12/30 01:00:40;;;;;;;30.80;28.10;;;2.50;99.90;;;;;;6256284;23;20403;-87
2020/12/30 01:03:40;;;;;;;29.30;25.53;;;2.50;99.90;;;;;;6257439;23;20399;-89
2020/12/30 01:06:35;;;;;;;;;;;;;;;;;;;;;
2020/12/30 01:12:57;;;;;;;26.10;23.77;;;2.60;99.90;;;;;;6212269;23;20443;-89
2020/12/30 01:16:25;;;;;;;;;;;;;;;;;;;;;
2020/12/30 01:19:28;;;;;;;24.70;22.17;;;2.70;99.90;;;;;;6257828;23;20395;-89
2020/12/30 01:22:53;;;;;;;;;;;;;;;;;;;;;
2020/12/30 01:25:56;;;;;;;25.70;23.27;;;2.70;99.90;;;;;;6244831;23;20514;-89
2020/12/30 01:31:44;;;;;;;20.40;18.57;;;2.80;99.90;;;;;;6221105;23;20415;-88
2020/12/30 01:34:39;;;;;;;25.40;22.00;;;2.80;99.90;;;;;;6256693;23;20434;-89
2020/12/30 01:37:42;;;;;;;23.47;21.07;;;2.80;99.90;;;;;;6243677;23;20443;-89
2020/12/30 01:40:50;;;;;;;25.30;23.13;;;2.90;99.90;;;;;;6237522;22;20969;-89
2020/12/30 01:44:14;;;;;;;;;;;;;;;;;;;;;
2020/12/30 01:47:45;;;;;;;;;;;;;;;;;;;;;
2020/12/30 01:50:39;;;;;;;30.10;27.67;;;2.80;99.90;;;;;;6077622;23;20920;-89
2020/12/30 01:56:46;;;;;;;32.23;29.77;;;2.90;99.90;;;;;;6089624;23;20994;-89
2020/12/30 01:59:50;;;;;;;33.87;31.07;;;2.80;99.90;;;;;;6104669;23;20422;-89
2020/12/30 02:02:43;;;;;;;;;;;;;;;;;;;;;
2020/12/30 02:06:20;;;;;;;;;;;;;;;;;;;;;
2020/12/30 02:12:31;;;;;;;35.97;32.40;;;2.50;99.90;;;;;;5942623;24;20422;-90
2020/12/30 02:22:21;;;;;;;45.43;41.83;;;2.10;99.90;;;;;;6086460;23;20420;-88
2020/12/30 02:25:12;;;;;;;50.00;46.27;;;1.90;99.90;;;;;;6134458;23;20413;-89
2020/12/30 02:31:30;;;;;;;60.67;56.17;;;1.80;99.90;;;;;;6133386;23;20450;-88
2020/12/30 02:34:16;;;;;;;56.70;52.87;;;2.00;99.90;;;;;;6187524;23;20429;-89
2020/12/30 02:40:22;;;;;;;58.53;54.50;;;2.00;99.90;;;;;;6136147;23;20421;-89
2020/12/30 02:43:14;;;;;;;;;;;;;;;;;;;;;
2020/12/30 02:45:53;;;;;;;61.87;57.90;;;1.90;99.90;;;;;;6220417;23;21008;-89
2020/12/30 02:48:40;;;;;;;70.50;66.30;;;1.80;99.90;;;;;;6248373;23;20418;-88
2020/12/30 02:54:28;;;;;;;76.63;71.73;;;1.60;99.90;;;;;;6233636;23;20411;-88
2020/12/30 02:57:32;;;;;;;75.37;71.20;;;1.60;99.90;;;;;;6245829;23;20442;-88
2020/12/30 03:03:14;;;;;;;79.37;74.57;;;1.70;99.90;;;;;;6244099;23;20399;-89
2020/12/30 03:06:05;;;;;;;86.90;81.90;;;1.50;99.90;;;;;;6257941;23;20462;-88
2020/12/30 03:08:46;;;;;;;82.53;78.03;;;1.50;99.90;;;;;;6235159;23;20411;-89
2020/12/30 03:14:49;;;;;;;84.60;79.37;;;1.50;99.90;;;;;;6255227;23;20404;-89
2020/12/30 03:17:27;;;;;;;76.40;71.97;;;1.50;99.90;;;;;;6237069;23;20465;-89
2020/12/30 03:20:00;;;;;;;71.67;67.37;;;1.50;99.90;;;;;;6246567;23;20631;-88
2020/12/30 03:22:40;;;;;;;;;;;;;;;;;;;;;
2020/12/30 03:25:27;;;;;;;48.13;45.17;;;1.60;99.90;;;;;;6181602;23;21002;-88
2020/12/30 03:28:03;;;;;;;52.80;49.53;;;1.70;99.90;;;;;;6183392;23;20447;-89
2020/12/30 03:30:44;;;;;;;56.50;52.97;;;1.60;99.90;;;;;;6191491;23;20416;-87
2020/12/30 03:33:23;;;;;;;54.00;50.20;;;1.60;99.90;;;;;;6192293;23;20475;-88
2020/12/30 03:35:57;;;;;;;62.53;58.70;;;1.60;99.90;;;;;;6191833;23;20466;-88
2020/12/30 03:38:33;;;;;;;65.07;61.17;;;1.40;99.90;;;;;;6192132;23;20505;-88
2020/12/30 03:41:27;;;;;;;;;;;;;;;;;;;;;
2020/12/30 03:44:06;;;;;;;80.70;75.53;;;1.20;99.90;;;;;;6238718;23;20427;-87
2020/12/30 03:46:34;;;;;;;89.20;84.20;;;1.10;99.90;;;;;;6255689;23;20161;-87
2020/12/30 03:49:05;;;;;;;92.13;86.97;;;1.10;99.90;;;;;;6255952;23;20745;-88
2020/12/30 03:51:41;;;;;;;90.00;84.90;;;1.10;99.90;;;;;;6245768;23;20805;-87
2020/12/30 03:54:18;;;;;;;77.73;72.93;;;1.30;99.90;;;;;;6257308;23;20407;-88
2020/12/30 03:56:57;;;;;;;76.43;71.77;;;1.20;99.90;;;;;;6246802;23;20941;-88
2020/12/30 03:59:33;;;;;;;65.60;61.90;;;1.20;99.90;;;;;;6256627;23;20398;-88
2020/12/30 04:02:20;;;;;;;63.80;60.10;;;1.20;99.90;;;;;;6257483;23;20446;-87
2020/12/30 04:05:01;;;;;;;73.47;69.40;;;1.10;99.90;;;;;;6258273;23;20777;-88
2020/12/30 04:07:36;;;;;;;79.53;75.27;;;1.00;99.90;;;;;;6248030;23;20395;-88
2020/12/30 04:10:34;;;;;;;90.87;85.57;;;1.00;99.90;;;;;;6258994;23;20406;-89
2020/12/30 04:13:54;;;;;;;;;;;;;;;;;;;;;
2020/12/30 04:24:12;;;;;;;;;;;;;;;;;;;;;
2020/12/30 04:33:12;;;;;;;145.43;137.82;;;1.10;99.90;;;;;;6175328;23;20197;-88
2020/12/30 04:49:39;;;;;;;151.43;143.30;;;1.10;99.90;;;;;;5880247;24;20419;-86
2020/12/30 05:04:26;;;;;;;;;;;;;;;;;;;;;
2020/12/30 05:34:30;;;;;;;;;;;;;;;;;;;;;
2020/12/30 05:44:22;;;;;;;192.63;181.03;;;1.20;99.90;;;;;;6191894;23;20403;-89
2020/12/30 06:00:29;;;;;;;174.93;163.07;;;1.40;99.90;;;;;;6020532;23;20778;-87
2020/12/30 06:03:34;;;;;;;168.00;157.43;;;1.40;99.90;;;;;;6019140;23;20418;-85
2020/12/30 06:06:38;;;;;;;161.48;151.63;;;1.40;99.90;;;;;;6145525;23;20472;-86
2020/12/30 06:09:22;;;;;;;149.97;140.77;;;1.50;99.90;;;;;;6183715;23;20200;-86
2020/12/30 06:11:56;;;;;;;136.47;128.60;;;1.60;99.90;;;;;;6192901;23;20451;-86
2020/12/30 06:14:26;;;;;;;130.37;123.40;;;1.60;99.90;;;;;;6226171;22;20432;-86
2020/12/30 06:17:15;;;;;;;119.97;113.17;;;1.50;99.90;;;;;;6308236;22;20398;-89
2020/12/30 06:19:50;;;;;;;108.80;102.50;;;1.50;99.90;;;;;;6301699;22;20897;-87
2020/12/30 06:22:24;;;;;;;100.17;94.10;;;1.50;99.90;;;;;;6318740;22;20707;-86
2020/12/30 06:25:04;;;;;;;90.87;85.17;;;1.50;99.90;;;;;;6319010;22;20416;-85
2020/12/30 06:27:35;;;;;;;90.43;85.00;;;1.50;99.90;;;;;;6319317;22;20409;-87
2020/12/30 06:30:05;;;;;;;102.63;96.73;;;1.40;99.90;;;;;;6318022;22;20810;-85
2020/12/30 06:32:34;;;;;;;110.50;103.90;;;1.30;99.90;;;;;;6307634;22;20563;-83
2020/12/30 06:35:09;;;;;;;120.03;112.73;;;1.30;99.90;;;;;;6317925;22;20443;-84
2020/12/30 06:37:37;;;;;;;121.63;114.80;;;1.30;99.90;;;;;;6317978;22;20436;-84
2020/12/30 06:40:31;;;;;;;124.83;117.23;;;1.30;99.90;;;;;;6317749;22;20409;-84
2020/12/30 06:43:03;;;;;;;125.40;118.37;;;1.40;99.90;;;;;;6276248;22;20417;-87
2020/12/30 06:45:53;;;;;;;132.30;124.60;;;1.20;99.90;;;;;;6316770;22;20926;-87
2020/12/30 06:48:22;;;;;;;127.70;119.90;;;1.20;99.90;;;;;;6276199;22;20886;-87
2020/12/30 06:50:56;;;;;;;136.23;127.30;;;1.10;99.90;;;;;;6276843;22;20403;-87
2020/12/30 06:53:35;;;;;;;135.80;127.50;;;1.20;99.90;;;;;;6287043;22;20424;-89
2020/12/30 06:56:03;;;;;;;131.37;122.87;;;1.30;99.90;;;;;;6286903;22;20401;-86
2020/12/30 06:58:52;;;;;;;140.90;130.97;;;1.30;99.90;;;;;;6275148;22;20465;-82
2020/12/30 07:01:20;;;;;;;118.50;111.10;;;1.40;99.90;;;;;;6286760;22;20434;-85
2020/12/30 07:03:48;;;;;;;128.20;119.90;;;1.40;99.90;;;;;;6286641;22;20398;-85
2020/12/30 07:06:29;;;;;;;129.40;120.83;;;1.50;99.90;;;;;;6286486;22;20160;-86
2020/12/30 07:08:59;;;;;;;117.57;110.30;;;1.60;99.90;;;;;;6276205;22;20398;-84
2020/12/30 07:12:03;;;;;;;120.47;112.27;;;1.60;99.90;;;;;;6286850;22;20437;-86
2020/12/30 07:14:31;;;;;;;106.97;99.40;;;1.70;99.90;;;;;;6283296;22;20413;-85
2020/12/30 07:16:58;;;;;;;100.03;93.00;;;1.80;99.90;;;;;;6276543;22;20434;-86
2020/12/30 07:19:27;;;;;;;110.33;101.83;;;1.80;99.90;;;;;;6286262;22;20406;-86
2020/12/30 07:22:02;;;;;;;111.00;102.87;;;1.80;99.90;;;;;;6276174;22;20398;-85
2020/12/30 07:24:31;;;;;;;110.23;102.07;;;1.80;99.90;;;;;;6286079;22;20424;-85
2020/12/30 07:27:09;;;;;;;;;;;;;;;;;;;;;
2020/12/30 07:29:37;;;;;;;122.67;113.60;;;1.80;99.90;;;;;;6287209;22;20428;-85
2020/12/30 07:32:05;;;;;;;130.63;120.37;;;1.90;99.90;;;;;;6289397;22;20521;-84
2020/12/30 07:34:35;;;;;;;139.60;129.57;;;1.90;99.90;;;;;;6278442;22;20544;-84
2020/12/30 07:37:03;;;;;;;148.00;137.70;;;1.90;99.90;;;;;;6278260;22;20426;-83
2020/12/30 07:39:34;;;;;;;153.80;142.10;;;2.00;99.90;;;;;;6278563;22;20532;-83
2020/12/30 07:42:01;;;;;;;157.37;146.27;;;2.00;99.90;;;;;;6288168;22;20403;-85
2020/12/30 07:44:28;;;;;;;155.10;143.93;;;2.10;99.90;;;;;;6270666;22;20429;-84
2020/12/30 07:47:00;;;;;;;152.07;141.27;;;2.10;99.90;;;;;;6285761;22;20472;-84
2020/12/30 07:49:27;;;;;;;154.10;142.70;;;2.10;99.90;;;;;;6275959;22;20402;-83
2020/12/30 07:51:56;;;;;;;151.17;140.47;;;2.10;99.90;;;;;;6275385;22;20417;-84
2020/12/30 07:54:26;;;;;;;143.40;133.13;;;2.10;99.90;;;;;;6286090;22;20495;-83
2020/12/30 07:57:00;;;;;;;145.03;134.33;;;2.00;99.90;;;;;;6275680;22;20804;-84
2020/12/30 07:59:27;;;;;;;142.63;132.03;;;2.10;99.90;;;;;;6284657;22;20429;-85
2020/12/30 08:01:55;;;;;;;148.73;138.03;;;2.10;99.90;;;;;;6276364;22;20399;-84
2020/12/30 08:04:21;;;;;;;143.43;132.40;;;2.10;99.90;;;;;;6285963;22;20802;-84
2020/12/30 08:06:48;;;;;;;151.97;141.50;;;2.10;99.90;;;;;;6275702;22;20395;-83
2020/12/30 08:09:16;;;;;;;153.83;141.50;;;2.20;99.90;;;;;;6275683;22;20405;-85
2020/12/30 08:11:49;;;;;;;146.70;136.50;;;2.30;99.90;;;;;;6275800;22;20482;-85
2020/12/30 08:14:16;;;;;;;133.60;123.87;;;2.40;99.90;;;;;;6274621;22;20406;-84
2020/12/30 08:16:51;;;;;;;135.07;125.97;;;2.30;99.90;;;;;;6275882;22;20481;-83
2020/12/30 08:19:30;;;;;;;125.50;116.87;;;2.40;99.90;;;;;;6276369;22;20850;-85
2020/12/30 08:22:09;;;;;;;121.53;112.50;;;2.30;99.90;;;;;;6275830;22;20480;-86
2020/12/30 08:24:38;;;;;;;122.00;113.20;;;2.30;99.90;;;;;;6275504;22;20504;-84
2020/12/30 08:27:05;;;;;;;129.17;119.97;;;2.40;99.90;;;;;;6275438;22;20464;-85
2020/12/30 08:29:35;;;;;;;111.97;104.57;;;2.50;99.90;;;;;;6273575;22;20455;-85
2020/12/30 08:32:09;;;;;;;118.03;108.23;;;2.60;99.90;;;;;;6282531;22;20449;-80
2020/12/30 08:34:41;;;;;;;109.27;100.63;;;2.70;99.90;;;;;;6285583;22;21020;-84
2020/12/30 08:37:10;;;;;;;99.40;91.90;;;2.80;99.90;;;;;;6270910;22;20487;-84
2020/12/30 08:39:47;;;;;;;94.83;87.13;;;2.80;99.90;;;;;;6271961;22;20918;-83
2020/12/30 08:42:53;;;;;;;88.80;82.07;;;2.80;99.90;;;;;;6275324;22;20402;-86
2020/12/30 08:45:25;;;;;;;85.53;78.83;;;2.80;99.90;;;;;;6225637;22;20472;-82
2020/12/30 08:47:56;;;;;;;83.10;76.50;;;2.90;99.90;;;;;;6285515;22;20407;-81
2020/12/30 08:50:27;;;;;;;73.70;67.80;;;2.90;99.90;;;;;;6279381;22;20467;-83
2020/12/30 08:52:55;;;;;;;69.30;63.80;;;3.00;99.90;;;;;;6287357;22;20407;-85
2020/12/30 08:55:22;;;;;;;73.77;67.63;;;3.00;99.90;;;;;;6287707;22;20421;-84
2020/12/30 08:57:50;;;;;;;68.23;62.10;;;3.00;99.90;;;;;;6287429;22;20446;-84
2020/12/30 09:00:18;;;;;;;65.80;60.20;;;2.90;99.90;;;;;;6276582;22;20774;-79
2020/12/30 09:02:48;;;;;;;66.37;60.90;;;2.90;99.90;;;;;;6287180;22;20468;-83
2020/12/30 09:05:24;;;;;;;61.30;56.50;;;2.90;99.90;;;;;;6277407;22;20399;-84
2020/12/30 09:07:51;;;;;;;58.40;53.03;;;3.00;99.90;;;;;;6277388;22;20402;-84
2020/12/30 09:10:17;;;;;;;57.97;53.30;;;3.10;99.90;;;;;;6277334;22;20403;-83
2020/12/30 09:12:45;;;;;;;57.93;52.53;;;3.10;99.90;;;;;;6277226;22;20448;-85
2020/12/30 09:15:14;;;;;;;59.93;54.47;;;3.10;99.90;;;;;;6285681;22;20484;-82
2020/12/30 09:17:59;;;;;;;60.87;55.20;;;3.20;99.90;;;;;;6287129;22;20442;-81
2020/12/30 09:20:33;;;;;;;54.07;49.07;;;3.40;99.90;;;;;;6277280;22;20402;-83
2020/12/30 09:23:00;;;;;;;50.87;46.13;;;3.30;99.90;;;;;;6287171;22;20409;-84
2020/12/30 09:25:31;;;;;;;53.53;48.37;;;3.50;99.90;;;;;;6277302;22;20421;-81
2020/12/30 09:27:59;;;;;;;51.83;47.17;;;3.40;99.90;;;;;;6276927;22;20460;-82
2020/12/30 09:30:28;;;;;;;50.53;45.33;;;3.40;99.90;;;;;;6285889;22;20440;-82
2020/12/30 09:32:56;;;;;;;48.90;43.70;;;3.60;99.90;;;;;;6277068;22;20434;-86
2020/12/30 09:35:30;;;;;;;49.80;44.50;;;3.70;99.90;;;;;;6287250;22;20438;-85
2020/12/30 09:37:58;;;;;;;47.60;42.57;;;3.80;99.90;;;;;;6276747;22;20454;-86
2020/12/30 09:40:26;;;;;;;44.63;38.83;;;4.00;99.90;;;;;;6287251;22;20411;-85
2020/12/30 09:42:53;;;;;;;44.30;39.03;;;3.90;99.90;;;;;;6276437;22;20448;-84
2020/12/30 09:45:21;;;;;;;42.50;37.93;;;3.90;99.90;;;;;;6274891;22;20438;-85
2020/12/30 09:47:48;;;;;;;34.53;30.87;;;4.00;99.90;;;;;;6276807;22;20430;-85
2020/12/30 09:50:17;;;;;;;48.97;37.63;;;4.00;99.90;;;;;;6287247;22;20414;-86
2020/12/30 09:52:44;;;;;;;38.73;32.37;;;4.00;99.90;;;;;;6286970;22;20410;-83
2020/12/30 09:55:13;;;;;;;42.40;34.30;;;4.10;99.90;;;;;;6286736;22;20410;-84
2020/12/30 09:57:41;;;;;;;34.20;27.30;;;4.10;99.90;;;;;;6286881;22;20430;-86
2020/12/30 10:00:09;;;;;;;37.07;27.37;;;4.10;99.90;;;;;;6275563;22;20430;-84
2020/12/30 10:02:38;;;;;;;49.67;27.17;;;4.20;99.90;;;;;;6276994;22;20485;-84
2020/12/30 10:05:05;;;;;;;40.43;26.20;;;4.20;99.90;;;;;;6276707;22;20898;-85
2020/12/30 10:07:31;;;;;;;38.57;24.23;;;4.20;99.90;;;;;;6287334;22;20406;-84
2020/12/30 10:09:58;;;;;;;41.33;25.87;;;4.30;99.90;;;;;;6291165;22;20540;-84
2020/12/30 10:12:24;;;;;;;39.80;22.93;;;4.20;99.90;;;;;;6287384;22;20428;-84
2020/12/30 10:14:51;;;;;;;39.40;24.80;;;4.20;99.90;;;;;;6275399;22;20886;-85
2020/12/30 10:17:17;;;;;;;42.07;26.60;;;4.20;99.90;;;;;;6276872;22;20402;-84
2020/12/30 10:19:45;;;;;;;32.60;24.70;;;4.20;99.90;;;;;;6287266;22;20418;-86
2020/12/30 10:22:13;;;;;;;33.20;20.63;;;4.30;99.90;;;;;;6276388;22;20398;-84
2020/12/30 10:24:44;;;;;;;35.27;21.83;;;4.40;99.90;;;;;;6276772;22;20879;-81
2020/12/30 10:27:15;;;;;;;27.80;18.07;;;4.50;99.90;;;;;;6287091;22;20494;-81
2020/12/30 10:29:42;;;;;;;30.43;19.67;;;4.50;99.90;;;;;;6285076;22;20424;-85
2020/12/30 10:32:08;;;;;;;27.80;19.30;;;4.60;99.90;;;;;;6276557;22;20925;-85
2020/12/30 10:34:35;;;;;;;31.13;20.70;;;4.70;99.90;;;;;;6276292;22;20410;-85
2020/12/30 10:37:04;;;;;;;33.40;21.37;;;4.60;99.90;;;;;;6276775;22;20552;-81
2020/12/30 10:39:31;;;;;;;33.80;21.50;;;4.80;99.90;;;;;;6286979;22;20460;-84
2020/12/30 10:42:00;;;;;;;27.50;19.13;;;4.80;99.90;;;;;;6276623;22;20482;-86
2020/12/30 10:44:27;;;;;;;25.27;17.73;;;4.90;99.90;;;;;;6284998;22;20414;-85
2020/12/30 10:46:56;;;;;;;30.00;18.87;;;5.10;99.90;;;;;;6276686;22;20765;-85
2020/12/30 10:49:23;;;;;;;27.07;17.20;;;5.40;97.80;;;;;;6287007;22;20873;-86
2020/12/30 10:51:50;;;;;;;28.50;19.30;;;5.60;95.00;;;;;;6286776;22;20745;-84
2020/12/30 10:54:26;;;;;;;26.20;18.07;;;5.70;92.10;;;;;;6286436;22;20894;-86
2020/12/30 10:56:53;;;;;;;30.67;18.13;;;5.90;87.70;;;;;;6286525;22;20861;-86
2020/12/30 10:59:21;;;;;;;26.03;16.10;;;6.10;84.10;;;;;;6285688;22;20476;-86
2020/12/30 11:01:57;;;;;;;24.83;14.60;;;6.30;82.20;;;;;;6285657;22;20766;-82
2020/12/30 11:04:26;;;;;;;24.27;15.00;;;6.30;76.80;;;;;;6275528;22;20497;-86
2020/12/30 11:06:54;;;;;;;22.50;14.57;;;6.30;74.80;;;;;;6288571;22;20805;-86
2020/12/30 11:09:25;;;;;;;25.67;15.67;;;6.30;74.80;;;;;;6288802;22;20409;-85
2020/12/30 11:12:10;;;;;;;26.87;17.97;;;6.30;74.80;;;;;;6278042;22;20718;-85
2020/12/30 11:15:11;;;;;;;22.50;14.67;;;6.40;74.90;;;;;;6277116;22;20406;-86
2020/12/30 11:21:00;;;;;;;21.70;14.17;;;6.40;70.30;;;;;;6249539;22;20456;-86
2020/12/30 11:23:28;;;;;;;31.83;18.27;;;6.40;69.90;;;;;;6237552;22;20500;-87
2020/12/30 11:25:57;;;;;;;30.70;19.60;;;6.40;68.00;;;;;;6287515;22;20399;-86
2020/12/30 11:28:23;;;;;;;27.97;18.40;;;6.60;67.10;;;;;;6278061;22;20464;-85
2020/12/30 11:30:51;;;;;;;28.97;21.37;;;6.60;68.50;;;;;;6286964;22;20402;-85
2020/12/30 11:33:24;;;;;;;31.73;17.27;;;6.60;67.00;;;;;;6277150;22;20464;-84
2020/12/30 11:35:55;;;;;;;18.97;12.67;;;6.60;66.50;;;;;;6277910;22;20422;-85
2020/12/30 11:38:23;;;;;;;30.83;16.67;;;6.20;65.20;;;;;;6287760;22;20441;-87
2020/12/30 11:40:51;;;;;;;25.50;14.97;;;6.20;67.30;;;;;;6277795;22;20413;-83
2020/12/30 11:43:46;;;;;;;25.03;16.73;;;6.00;66.60;;;;;;6287883;22;20410;-83
2020/12/30 11:46:20;;;;;;;26.20;17.83;;;6.00;67.10;;;;;;6223578;23;20416;-83
2020/12/30 11:49:04;;;;;;;29.57;19.80;;;6.00;68.00;;;;;;6269756;22;20543;-82
2020/12/30 11:51:39;;;;;;;26.10;17.70;;;6.00;71.20;;;;;;6287992;22;20406;-83
2020/12/30 11:54:16;;;;;;;28.30;16.73;;;6.00;70.60;;;;;;6287959;22;20421;-83
2020/12/30 11:56:47;;;;;;;31.57;18.07;;;6.10;70.40;;;;;;6288146;22;20874;-85
2020/12/30 11:59:36;;;;;;;24.40;15.17;;;6.10;70.40;;;;;;6287053;22;20433;-83
2020/12/30 12:02:09;;;;;;;28.60;18.33;;;6.00;69.90;;;;;;6287748;22;20417;-82
2020/12/30 12:04:59;;;;;;;28.40;18.27;;;5.90;70.60;;;;;;6287695;22;20905;-84
2020/12/30 12:11:16;;;;;;;40.50;23.10;;;6.00;70.90;;;;;;6162334;23;20904;-84
2020/12/30 12:13:55;;;;;;;31.20;21.10;;;6.10;70.00;;;;;;6181569;23;21037;-84
2020/12/30 12:16:42;;;;;;;36.13;19.30;;;6.40;69.10;;;;;;6189864;23;20420;-85
2020/12/30 12:26:32;;;;;;;;;;;;;;;;;;;;;
2020/12/30 12:29:37;;;;;;;25.27;16.03;;;6.00;67.90;;;;;;6020428;23;20465;-86
2020/12/30 12:35:04;;;;;;;26.43;15.20;;;5.80;70.90;;;;;;6275978;22;20423;-86
2020/12/30 12:37:38;;;;;;;24.77;16.47;;;5.60;72.60;;;;;;6288108;22;20893;-84
2020/12/30 12:40:53;;;;;;;;;;;;;;;;;;;;;
2020/12/30 12:43:48;;;;;;;;;;;;;;;;;;;;;
2020/12/30 12:53:22;;;;;;;27.43;17.20;;;5.80;74.40;;;;;;6272996;22;20476;-85
2020/12/30 12:56:12;;;;;;;28.27;18.23;;;5.70;74.80;;;;;;6285418;22;20407;-83
2020/12/30 12:59:06;;;;;;;31.50;17.90;;;5.80;76.00;;;;;;6285671;22;20422;-85
2020/12/30 13:02:15;;;;;;;;;;;;;;;;;;;;;
2020/12/30 13:05:19;;;;;;;;;;;;;;;;;;;;;
2020/12/30 13:15:12;;;;;;;;;;;;;;;;;;;;;
2020/12/30 13:28:09;;;;;;;25.53;17.67;;;5.70;78.00;;;;;;5868084;24;20418;-86
2020/12/30 13:37:42;;;;;;;32.23;19.90;;;5.40;82.60;;;;;;5831789;24;20425;-85
2020/12/30 13:40:13;;;;;;;30.60;17.17;;;5.30;88.80;;;;;;6085273;23;20418;-83
2020/12/30 13:42:45;;;;;;;28.50;19.10;;;5.30;96.30;;;;;;6194778;22;20418;-84
2020/12/30 13:45:15;;;;;;;36.33;23.63;;;5.10;99.90;;;;;;6287177;22;20406;-84
2020/12/30 13:47:44;;;;;;;32.50;20.37;;;5.00;99.90;;;;;;6287046;22;20425;-84
2020/12/30 13:50:12;;;;;;;34.83;22.43;;;5.00;99.90;;;;;;6276754;22;20434;-84
2020/12/30 13:52:44;;;;;;;34.27;20.77;;;5.00;99.90;;;;;;6287054;22;20724;-84
2020/12/30 13:55:11;;;;;;;32.90;22.73;;;5.00;99.90;;;;;;6287834;22;20406;-85
2020/12/30 13:57:40;;;;;;;33.53;22.07;;;5.00;99.90;;;;;;6287243;22;20399;-84
2020/12/30 14:00:19;;;;;;;;;;;;;;;;;;;;;
2020/12/30 14:02:56;;;;;;;30.50;21.53;;;5.00;99.90;;;;;;6276513;22;20476;-84
2020/12/30 14:05:25;;;;;;;33.17;22.43;;;4.90;99.90;;;;;;6276785;22;20426;-84
2020/12/30 14:10:34;;;;;;;29.47;20.93;;;4.90;99.90;;;;;;6278070;22;20556;-85
2020/12/30 14:13:01;;;;;;;38.27;23.57;;;4.80;99.90;;;;;;6287158;22;20706;-85
2020/12/30 14:15:32;;;;;;;35.40;23.00;;;4.80;99.90;;;;;;6269511;22;21077;-84
2020/12/30 14:18:02;;;;;;;37.17;25.87;;;4.80;99.90;;;;;;6281971;22;20418;-84
2020/12/30 14:20:29;;;;;;;31.30;22.00;;;4.80;99.90;;;;;;6273665;22;20403;-83
2020/12/30 14:25:42;;;;;;;32.90;22.93;;;4.80;99.90;;;;;;6284108;22;20490;-85
2020/12/30 14:28:10;;;;;;;36.13;25.70;;;4.80;99.90;;;;;;6283551;22;20402;-85
2020/12/30 14:30:50;;;;;;;37.37;27.10;;;4.70;99.90;;;;;;6282890;22;20781;-82
2020/12/30 14:33:33;;;;;;;38.63;27.37;;;4.80;99.90;;;;;;6283088;22;20406;-83
2020/12/30 14:36:02;;;;;;;42.10;25.47;;;4.80;99.90;;;;;;6268082;22;20402;-84
2020/12/30 14:38:32;;;;;;;37.58;26.20;;;4.80;99.90;;;;;;6272049;22;20788;-84
2020/12/30 14:41:07;;;;;;;38.43;23.10;;;4.80;99.90;;;;;;6284412;22;20231;-82
2020/12/30 14:43:34;;;;;;;37.63;26.73;;;4.80;99.90;;;;;;6255857;22;20406;-84
2020/12/30 14:46:03;;;;;;;35.80;25.40;;;4.90;99.90;;;;;;6277066;22;20409;-86
2020/12/30 14:48:32;;;;;;;39.57;26.53;;;4.80;99.90;;;;;;6287139;22;20406;-86
2020/12/30 14:50:59;;;;;;;35.60;27.80;;;4.90;99.90;;;;;;6276753;22;20461;-86
2020/12/30 14:53:25;;;;;;;42.83;26.63;;;4.80;99.90;;;;;;6287491;22;20398;-85
2020/12/30 14:55:55;;;;;;;43.00;26.00;;;4.80;99.90;;;;;;6287141;22;20485;-88
2020/12/30 14:58:21;;;;;;;37.83;26.47;;;4.80;99.90;;;;;;6287770;22;20521;-88
2020/12/30 15:00:48;;;;;;;38.43;27.47;;;4.80;99.90;;;;;;6275751;22;20402;-88
2020/12/30 15:03:15;;;;;;;44.90;28.00;;;4.80;99.90;;;;;;6277711;22;20826;-87
2020/12/30 15:05:44;;;;;;;38.37;24.43;;;4.80;99.90;;;;;;6277423;22;20722;-85
2020/12/30 15:08:12;;;;;;;34.87;25.60;;;4.80;99.90;;;;;;6286886;22;20414;-89
2020/12/30 15:10:39;;;;;;;39.70;26.50;;;4.80;99.90;;;;;;6283950;22;20766;-88
2020/12/30 15:13:08;;;;;;;39.63;25.43;;;4.70;99.90;;;;;;6272611;22;20403;-86
2020/12/30 15:15:41;;;;;;;38.83;25.70;;;4.80;99.90;;;;;;6283486;22;20441;-85
2020/12/30 15:18:09;;;;;;;41.67;27.70;;;4.70;99.90;;;;;;6273615;22;20505;-86
2020/12/30 15:20:36;;;;;;;36.67;24.23;;;4.80;99.90;;;;;;6283179;22;20706;-84
2020/12/30 15:23:03;;;;;;;41.30;27.40;;;4.70;99.90;;;;;;6275644;22;20413;-87
2020/12/30 15:25:30;;;;;;;42.00;27.00;;;4.70;99.90;;;;;;6274494;22;20452;-83
2020/12/30 15:27:56;;;;;;;50.17;29.23;;;4.70;99.90;;;;;;6283116;22;20795;-81
2020/12/30 15:30:22;;;;;;;46.50;29.70;;;4.60;99.90;;;;;;6272367;22;20406;-81
2020/12/30 15:32:49;;;;;;;48.40;29.03;;;4.60;99.90;;;;;;6278370;22;20434;-82
2020/12/30 15:35:17;;;;;;;45.30;28.43;;;4.60;99.90;;;;;;6283775;22;20425;-80
2020/12/30 15:37:50;;;;;;;39.67;26.10;;;4.70;99.90;;;;;;6274165;22;20449;-88
2020/12/30 15:40:17;;;;;;;34.70;23.70;;;4.60;99.90;;;;;;6283505;22;20441;-84
2020/12/30 15:42:43;;;;;;;36.80;24.73;;;4.60;99.90;;;;;;6283515;22;20414;-76
2020/12/30 15:45:27;;;;;;;37.47;24.97;;;4.60;99.90;;;;;;6272259;22;20403;-84
2020/12/30 15:47:59;;;;;;;36.90;26.73;;;4.70;99.90;;;;;;6283460;22;20767;-86
2020/12/30 15:50:25;;;;;;;41.73;24.63;;;4.60;99.90;;;;;;6285847;22;20463;-84
2020/12/30 15:52:52;;;;;;;39.87;27.03;;;4.60;99.90;;;;;;6275488;22;20752;-86
2020/12/30 15:55:20;;;;;;;32.17;23.90;;;4.60;99.90;;;;;;6285652;22;20497;-85
2020/12/30 15:57:49;;;;;;;35.37;24.83;;;4.60;99.90;;;;;;6281366;22;20413;-83
2020/12/30 16:00:16;;;;;;;37.97;25.57;;;4.60;99.90;;;;;;6283383;22;20456;-85
2020/12/30 16:02:42;;;;;;;36.80;27.13;;;4.60;99.90;;;;;;6275361;22;20398;-81
2020/12/30 16:05:09;;;;;;;35.70;24.60;;;4.50;99.90;;;;;;6285720;22;20739;-85
2020/12/30 16:07:37;;;;;;;35.37;24.80;;;4.60;99.90;;;;;;6287498;22;20398;-85
2020/12/30 16:10:05;;;;;;;46.13;26.90;;;4.60;99.90;;;;;;6287468;22;20434;-84
2020/12/30 16:12:33;;;;;;;42.33;25.80;;;4.50;99.90;;;;;;6276871;22;21227;-87
2020/12/30 16:15:00;;;;;;;37.20;25.93;;;4.60;99.90;;;;;;6286013;22;20889;-79
2020/12/30 16:17:28;;;;;;;38.77;25.87;;;4.60;99.90;;;;;;6276911;22;20490;-84
2020/12/30 16:19:54;;;;;;;39.30;25.77;;;4.60;99.90;;;;;;6286591;22;20452;-84
2020/12/30 16:22:22;;;;;;;39.20;26.93;;;4.60;99.90;;;;;;6287283;22;20445;-84
2020/12/30 16:24:49;;;;;;;30.87;23.00;;;4.60;99.90;;;;;;6286975;22;20491;-84
2020/12/30 16:27:19;;;;;;;42.77;24.80;;;4.70;99.90;;;;;;6276278;22;20902;-83
2020/12/30 16:29:47;;;;;;;43.33;23.80;;;4.60;99.90;;;;;;6285680;22;20410;-84
2020/12/30 16:32:16;;;;;;;35.00;23.43;;;4.70;99.90;;;;;;6286705;22;20959;-83
2020/12/30 16:34:43;;;;;;;41.77;24.33;;;4.60;99.90;;;;;;6286706;22;20444;-85
2020/12/30 16:37:09;;;;;;;33.00;22.97;;;4.60;99.90;;;;;;6285599;22;20411;-81
2020/12/30 16:39:35;;;;;;;34.37;23.20;;;4.60;99.90;;;;;;6286524;22;20442;-84
2020/12/30 16:42:04;;;;;;;35.77;23.97;;;4.70;99.90;;;;;;6276600;22;20867;-84
2020/12/30 16:44:32;;;;;;;32.33;21.40;;;4.70;99.90;;;;;;6284325;22;20403;-84
2020/12/30 16:47:01;;;;;;;33.87;21.67;;;4.70;99.90;;;;;;6276452;22;20399;-83
2020/12/30 16:49:32;;;;;;;33.50;21.63;;;4.60;99.90;;;;;;6276520;22;20464;-89
2020/12/30 16:52:00;;;;;;;32.53;22.10;;;4.60;99.90;;;;;;6283847;22;20434;-83
2020/12/30 16:54:27;;;;;;;33.63;21.53;;;4.70;99.90;;;;;;6283304;22;20402;-84
2020/12/30 16:56:57;;;;;;;35.67;20.40;;;4.60;99.90;;;;;;6270528;22;20407;-84
2020/12/30 16:59:28;;;;;;;36.60;21.97;;;4.60;99.90;;;;;;6280004;22;20813;-84
2020/12/30 17:04:38;;;;;;;32.23;21.10;;;4.70;99.90;;;;;;6273150;22;20413;-86
2020/12/30 17:07:05;;;;;;;38.30;21.90;;;4.60;99.90;;;;;;6275193;22;20395;-84
2020/12/30 17:09:41;;;;;;;33.43;21.40;;;4.60;99.90;;;;;;6296019;22;20528;-84
2020/12/30 17:12:08;;;;;;;31.93;21.37;;;4.60;99.90;;;;;;6301408;22;21095;-84
2020/12/30 17:14:36;;;;;;;37.43;22.27;;;4.60;99.90;;;;;;6304186;22;20401;-87